KLMT/LMT METAR and TAF weather

Enter ICAO airport designator
Station Type Date Time Source
KLMT METAR 2019/08/25 19:53 UTC NOAA

KLMT 251953Z 23005KT 10SM CLR 27/03 A3015 RMK AO2 SLP168 T02720033


Station Type Date Time Source
KLMT Decoded METAR 2019/08/25 19:53 UTC NOAA

Station name not available
Aug 25, 2019 - 03:53 PM EDT / 2019.08.25 1953 UTC
Wind: from the SW (230 degrees) at 6 MPH (5 KT):0
Visibility: 10 mile(s):0
Sky conditions: clear
Temperature: 81.0 F (27.2 C)
Dew Point: 37.9 F (3.3 C)
Relative Humidity: 21%
Pressure (altimeter): 30.15 in. Hg (1020 hPa)
ob: KLMT 251953Z 23005KT 10SM CLR 27/03 A3015 RMK AO2 SLP168 T02720033
cycle: 20

Station Type Date Time Source
KLMT TAF 2019/08/25 18:30 UTC NOAA

TAF KLMT 251728Z 2518/2618 VRB03KT P6SM SKC
FM252000 30008KT P6SM SKC
FM252200 31013G20KT P6SM SKC
FM260500 34006KT P6SM SKC

Example: see airport list